sensor_id;sensor_type;location;lat;lon;timestamp;P1;durP1;ratioP1;P2;durP2;ratioP2
15192;SDS011;7697;51.630;7.484;2023-09-18T00:01:45;3.78;;;3.38;;
15192;SDS011;7697;51.630;7.484;2023-09-18T00:06:46;4.05;;;3.50;;
15192;SDS011;7697;51.630;7.484;2023-09-18T00:11:48;5.40;;;4.15;;
15192;SDS011;7697;51.630;7.484;2023-09-18T00:16:51;5.35;;;4.40;;
15192;SDS011;7697;51.630;7.484;2023-09-18T00:21:53;4.30;;;3.80;;
15192;SDS011;7697;51.630;7.484;2023-09-18T00:26:56;4.68;;;4.28;;
15192;SDS011;7697;51.630;7.484;2023-09-18T00:31:59;5.03;;;4.13;;
15192;SDS011;7697;51.630;7.484;2023-09-18T00:37:01;4.07;;;3.67;;
15192;SDS011;7697;51.630;7.484;2023-09-18T00:42:03;5.10;;;3.80;;
15192;SDS011;7697;51.630;7.484;2023-09-18T00:47:06;5.82;;;3.92;;
15192;SDS011;7697;51.630;7.484;2023-09-18T00:52:08;5.90;;;3.72;;
15192;SDS011;7697;51.630;7.484;2023-09-18T00:57:11;4.80;;;3.83;;
15192;SDS011;7697;51.630;7.484;2023-09-18T01:02:15;4.57;;;4.00;;
15192;SDS011;7697;51.630;7.484;2023-09-18T01:07:17;3.78;;;3.47;;
15192;SDS011;7697;51.630;7.484;2023-09-18T01:12:21;4.35;;;3.90;;
15192;SDS011;7697;51.630;7.484;2023-09-18T01:17:29;5.43;;;4.05;;
15192;SDS011;7697;51.630;7.484;2023-09-18T01:22:33;4.72;;;4.20;;
15192;SDS011;7697;51.630;7.484;2023-09-18T01:27:35;4.00;;;3.42;;
15192;SDS011;7697;51.630;7.484;2023-09-18T01:32:36;6.45;;;3.97;;
15192;SDS011;7697;51.630;7.484;2023-09-18T01:37:40;5.13;;;3.75;;
15192;SDS011;7697;51.630;7.484;2023-09-18T01:42:43;6.13;;;4.45;;
15192;SDS011;7697;51.630;7.484;2023-09-18T01:47:46;4.00;;;3.60;;
15192;SDS011;7697;51.630;7.484;2023-09-18T01:52:49;5.72;;;3.83;;
15192;SDS011;7697;51.630;7.484;2023-09-18T01:57:51;5.07;;;3.63;;
15192;SDS011;7697;51.630;7.484;2023-09-18T02:02:53;4.18;;;3.78;;
15192;SDS011;7697;51.630;7.484;2023-09-18T02:07:56;4.40;;;4.00;;
15192;SDS011;7697;51.630;7.484;2023-09-18T02:12:58;4.72;;;3.90;;
15192;SDS011;7697;51.630;7.484;2023-09-18T02:17:59;4.97;;;4.35;;
15192;SDS011;7697;51.630;7.484;2023-09-18T02:23:02;5.45;;;4.03;;
15192;SDS011;7697;51.630;7.484;2023-09-18T02:28:04;5.53;;;4.07;;
15192;SDS011;7697;51.630;7.484;2023-09-18T02:33:06;5.32;;;4.70;;
15192;SDS011;7697;51.630;7.484;2023-09-18T02:38:10;7.00;;;4.28;;
15192;SDS011;7697;51.630;7.484;2023-09-18T02:43:12;4.85;;;4.40;;
15192;SDS011;7697;51.630;7.484;2023-09-18T02:48:13;4.43;;;4.03;;
15192;SDS011;7697;51.630;7.484;2023-09-18T02:53:18;4.05;;;3.65;;
15192;SDS011;7697;51.630;7.484;2023-09-18T02:58:21;4.95;;;4.20;;
15192;SDS011;7697;51.630;7.484;2023-09-18T03:03:26;5.75;;;4.10;;
15192;SDS011;7697;51.630;7.484;2023-09-18T03:08:29;6.43;;;3.83;;
15192;SDS011;7697;51.630;7.484;2023-09-18T03:13:31;7.32;;;4.22;;
15192;SDS011;7697;51.630;7.484;2023-09-18T03:18:33;5.07;;;3.90;;
15192;SDS011;7697;51.630;7.484;2023-09-18T03:23:36;4.40;;;3.75;;
15192;SDS011;7697;51.630;7.484;2023-09-18T03:28:38;5.03;;;4.13;;
15192;SDS011;7697;51.630;7.484;2023-09-18T03:33:39;5.20;;;3.72;;
15192;SDS011;7697;51.630;7.484;2023-09-18T03:38:42;4.72;;;3.78;;
15192;SDS011;7697;51.630;7.484;2023-09-18T03:43:44;3.88;;;3.58;;
15192;SDS011;7697;51.630;7.484;2023-09-18T03:48:46;5.05;;;3.83;;
15192;SDS011;7697;51.630;7.484;2023-09-18T03:53:49;4.45;;;3.80;;
15192;SDS011;7697;51.630;7.484;2023-09-18T03:58:51;5.35;;;3.88;;
15192;SDS011;7697;51.630;7.484;2023-09-18T04:03:53;3.70;;;3.40;;
15192;SDS011;7697;51.630;7.484;2023-09-18T04:08:56;5.25;;;3.47;;
15192;SDS011;7697;51.630;7.484;2023-09-18T04:13:57;3.70;;;3.22;;
15192;SDS011;7697;51.630;7.484;2023-09-18T04:18:59;4.68;;;3.17;;
15192;SDS011;7697;51.630;7.484;2023-09-18T04:24:03;4.88;;;3.08;;
15192;SDS011;7697;51.630;7.484;2023-09-18T04:29:05;2.90;;;2.65;;
15192;SDS011;7697;51.630;7.484;2023-09-18T04:34:07;4.88;;;3.90;;
15192;SDS011;7697;51.630;7.484;2023-09-18T04:39:10;4.15;;;3.70;;
15192;SDS011;7697;51.630;7.484;2023-09-18T04:44:12;5.93;;;3.53;;
15192;SDS011;7697;51.630;7.484;2023-09-18T04:49:14;4.68;;;3.83;;
15192;SDS011;7697;51.630;7.484;2023-09-18T04:54:18;5.05;;;3.42;;
15192;SDS011;7697;51.630;7.484;2023-09-18T05:04:30;6.28;;;3.38;;
15192;SDS011;7697;51.630;7.484;2023-09-18T05:09:33;5.15;;;2.80;;
15192;SDS011;7697;51.630;7.484;2023-09-18T05:14:36;4.78;;;2.85;;
15192;SDS011;7697;51.630;7.484;2023-09-18T05:19:37;4.45;;;2.65;;
15192;SDS011;7697;51.630;7.484;2023-09-18T05:24:40;6.22;;;2.92;;
15192;SDS011;7697;51.630;7.484;2023-09-18T05:29:42;7.03;;;3.00;;
15192;SDS011;7697;51.630;7.484;2023-09-18T05:34:44;5.22;;;2.80;;
15192;SDS011;7697;51.630;7.484;2023-09-18T05:39:48;4.57;;;2.63;;
15192;SDS011;7697;51.630;7.484;2023-09-18T05:44:50;5.50;;;2.85;;
15192;SDS011;7697;51.630;7.484;2023-09-18T05:49:52;6.93;;;3.63;;
15192;SDS011;7697;51.630;7.484;2023-09-18T05:54:55;5.35;;;2.80;;
15192;SDS011;7697;51.630;7.484;2023-09-18T05:59:57;6.18;;;2.78;;
15192;SDS011;7697;51.630;7.484;2023-09-18T06:04:59;6.35;;;3.10;;
15192;SDS011;7697;51.630;7.484;2023-09-18T06:10:08;5.20;;;2.78;;
15192;SDS011;7697;51.630;7.484;2023-09-18T06:15:10;5.95;;;2.92;;
15192;SDS011;7697;51.630;7.484;2023-09-18T06:20:12;5.70;;;2.78;;
15192;SDS011;7697;51.630;7.484;2023-09-18T06:25:17;6.00;;;2.92;;
15192;SDS011;7697;51.630;7.484;2023-09-18T06:30:20;6.50;;;3.25;;
15192;SDS011;7697;51.630;7.484;2023-09-18T06:35:22;3.92;;;2.78;;
15192;SDS011;7697;51.630;7.484;2023-09-18T06:40:25;6.72;;;2.60;;
15192;SDS011;7697;51.630;7.484;2023-09-18T06:45:27;6.22;;;2.80;;
15192;SDS011;7697;51.630;7.484;2023-09-18T06:50:29;4.68;;;2.58;;
15192;SDS011;7697;51.630;7.484;2023-09-18T06:55:33;10.05;;;2.83;;
15192;SDS011;7697;51.630;7.484;2023-09-18T07:00:35;5.00;;;2.67;;
15192;SDS011;7697;51.630;7.484;2023-09-18T07:05:39;7.03;;;3.05;;
15192;SDS011;7697;51.630;7.484;2023-09-18T07:10:43;4.32;;;2.78;;
15192;SDS011;7697;51.630;7.484;2023-09-18T07:15:45;6.07;;;2.63;;
15192;SDS011;7697;51.630;7.484;2023-09-18T07:20:48;5.70;;;2.47;;
15192;SDS011;7697;51.630;7.484;2023-09-18T07:25:51;5.97;;;2.45;;
15192;SDS011;7697;51.630;7.484;2023-09-18T07:30:53;6.35;;;2.45;;
15192;SDS011;7697;51.630;7.484;2023-09-18T07:35:54;5.22;;;2.40;;
15192;SDS011;7697;51.630;7.484;2023-09-18T07:40:59;7.72;;;2.78;;
15192;SDS011;7697;51.630;7.484;2023-09-18T07:46:00;5.20;;;2.30;;
15192;SDS011;7697;51.630;7.484;2023-09-18T07:51:03;8.57;;;2.58;;
15192;SDS011;7697;51.630;7.484;2023-09-18T07:56:06;14.73;;;5.30;;
15192;SDS011;7697;51.630;7.484;2023-09-18T08:01:08;5.25;;;2.05;;
15192;SDS011;7697;51.630;7.484;2023-09-18T08:06:10;4.45;;;1.98;;
15192;SDS011;7697;51.630;7.484;2023-09-18T08:11:17;3.30;;;2.10;;
15192;SDS011;7697;51.630;7.484;2023-09-18T08:16:19;2.72;;;2.10;;
15192;SDS011;7697;51.630;7.484;2023-09-18T08:21:21;3.33;;;2.05;;
15192;SDS011;7697;51.630;7.484;2023-09-18T08:26:25;4.82;;;2.20;;
15192;SDS011;7697;51.630;7.484;2023-09-18T08:31:27;3.13;;;1.90;;
15192;SDS011;7697;51.630;7.484;2023-09-18T08:36:31;2.00;;;1.70;;
15192;SDS011;7697;51.630;7.484;2023-09-18T08:41:36;4.63;;;2.08;;
15192;SDS011;7697;51.630;7.484;2023-09-18T08:46:43;4.75;;;1.73;;
15192;SDS011;7697;51.630;7.484;2023-09-18T08:51:45;4.55;;;2.00;;
15192;SDS011;7697;51.630;7.484;2023-09-18T08:56:49;3.75;;;2.00;;
15192;SDS011;7697;51.630;7.484;2023-09-18T09:01:51;4.53;;;1.75;;
15192;SDS011;7697;51.630;7.484;2023-09-18T09:06:53;3.00;;;1.90;;
15192;SDS011;7697;51.630;7.484;2023-09-18T09:11:59;3.13;;;1.80;;
15192;SDS011;7697;51.630;7.484;2023-09-18T09:17:00;4.32;;;2.00;;
15192;SDS011;7697;51.630;7.484;2023-09-18T09:22:02;3.05;;;1.77;;
15192;SDS011;7697;51.630;7.484;2023-09-18T09:27:06;2.90;;;1.80;;
15192;SDS011;7697;51.630;7.484;2023-09-18T09:32:14;2.67;;;1.65;;
15192;SDS011;7697;51.630;7.484;2023-09-18T09:37:18;4.95;;;1.80;;
15192;SDS011;7697;51.630;7.484;2023-09-18T09:42:21;3.85;;;2.33;;
15192;SDS011;7697;51.630;7.484;2023-09-18T09:47:24;3.10;;;1.75;;
15192;SDS011;7697;51.630;7.484;2023-09-18T09:52:26;4.90;;;2.20;;
15192;SDS011;7697;51.630;7.484;2023-09-18T09:57:29;4.28;;;1.70;;
15192;SDS011;7697;51.630;7.484;2023-09-18T10:02:31;2.38;;;1.85;;
15192;SDS011;7697;51.630;7.484;2023-09-18T10:07:36;4.18;;;1.98;;
15192;SDS011;7697;51.630;7.484;2023-09-18T10:12:41;5.20;;;1.95;;
15192;SDS011;7697;51.630;7.484;2023-09-18T10:17:45;3.05;;;1.58;;
15192;SDS011;7697;51.630;7.484;2023-09-18T10:22:51;2.20;;;1.70;;
15192;SDS011;7697;51.630;7.484;2023-09-18T10:27:58;2.53;;;1.80;;
15192;SDS011;7697;51.630;7.484;2023-09-18T10:33:03;2.55;;;1.70;;
15192;SDS011;7697;51.630;7.484;2023-09-18T10:38:07;2.38;;;1.40;;
15192;SDS011;7697;51.630;7.484;2023-09-18T10:43:12;2.72;;;1.60;;
15192;SDS011;7697;51.630;7.484;2023-09-18T10:48:17;2.95;;;1.38;;
15192;SDS011;7697;51.630;7.484;2023-09-18T10:53:25;1.77;;;1.40;;
15192;SDS011;7697;51.630;7.484;2023-09-18T10:58:28;2.85;;;1.70;;
15192;SDS011;7697;51.630;7.484;2023-09-18T11:03:31;2.40;;;1.42;;
15192;SDS011;7697;51.630;7.484;2023-09-18T11:08:35;3.42;;;1.63;;
15192;SDS011;7697;51.630;7.484;2023-09-18T11:13:46;5.18;;;1.90;;
15192;SDS011;7697;51.630;7.484;2023-09-18T11:18:50;2.33;;;1.42;;
15192;SDS011;7697;51.630;7.484;2023-09-18T11:23:59;2.15;;;1.70;;
15192;SDS011;7697;51.630;7.484;2023-09-18T11:29:05;2.50;;;1.77;;
15192;SDS011;7697;51.630;7.484;2023-09-18T11:34:12;1.80;;;1.48;;
15192;SDS011;7697;51.630;7.484;2023-09-18T11:44:37;3.10;;;1.73;;
15192;SDS011;7697;51.630;7.484;2023-09-18T11:49:46;2.47;;;1.67;;
15192;SDS011;7697;51.630;7.484;2023-09-18T11:54:55;1.65;;;1.55;;
15192;SDS011;7697;51.630;7.484;2023-09-18T11:59:59;2.75;;;1.60;;
15192;SDS011;7697;51.630;7.484;2023-09-18T12:05:13;3.10;;;1.50;;
15192;SDS011;7697;51.630;7.484;2023-09-18T12:10:16;1.60;;;1.50;;
15192;SDS011;7697;51.630;7.484;2023-09-18T12:15:22;5.28;;;1.70;;
15192;SDS011;7697;51.630;7.484;2023-09-18T12:20:24;1.95;;;1.58;;
15192;SDS011;7697;51.630;7.484;2023-09-18T12:25:26;1.75;;;1.60;;
15192;SDS011;7697;51.630;7.484;2023-09-18T12:30:29;2.13;;;1.50;;
15192;SDS011;7697;51.630;7.484;2023-09-18T12:35:31;2.13;;;1.88;;
15192;SDS011;7697;51.630;7.484;2023-09-18T12:40:33;2.65;;;1.65;;
15192;SDS011;7697;51.630;7.484;2023-09-18T12:45:36;2.38;;;1.60;;
15192;SDS011;7697;51.630;7.484;2023-09-18T12:50:39;2.72;;;1.70;;
15192;SDS011;7697;51.630;7.484;2023-09-18T12:55:41;2.65;;;1.65;;
15192;SDS011;7697;51.630;7.484;2023-09-18T13:00:49;2.90;;;1.65;;
15192;SDS011;7697;51.630;7.484;2023-09-18T13:05:51;2.40;;;1.60;;
15192;SDS011;7697;51.630;7.484;2023-09-18T13:10:54;3.10;;;1.90;;
15192;SDS011;7697;51.630;7.484;2023-09-18T13:15:58;2.75;;;1.60;;
15192;SDS011;7697;51.630;7.484;2023-09-18T13:21:08;3.17;;;1.75;;
15192;SDS011;7697;51.630;7.484;2023-09-18T13:26:10;3.85;;;1.95;;
15192;SDS011;7697;51.630;7.484;2023-09-18T13:31:14;4.07;;;1.75;;
15192;SDS011;7697;51.630;7.484;2023-09-18T13:36:16;2.35;;;2.00;;
15192;SDS011;7697;51.630;7.484;2023-09-18T13:41:17;3.15;;;1.73;;
15192;SDS011;7697;51.630;7.484;2023-09-18T13:46:20;2.53;;;1.80;;
15192;SDS011;7697;51.630;7.484;2023-09-18T13:51:23;3.78;;;1.88;;
15192;SDS011;7697;51.630;7.484;2023-09-18T13:56:25;2.58;;;1.90;;
15192;SDS011;7697;51.630;7.484;2023-09-18T14:01:30;3.50;;;2.03;;
15192;SDS011;7697;51.630;7.484;2023-09-18T14:06:32;2.92;;;1.85;;
15192;SDS011;7697;51.630;7.484;2023-09-18T14:11:34;2.50;;;1.90;;
15192;SDS011;7697;51.630;7.484;2023-09-18T14:16:39;3.15;;;1.60;;
15192;SDS011;7697;51.630;7.484;2023-09-18T14:21:41;3.10;;;1.80;;
15192;SDS011;7697;51.630;7.484;2023-09-18T14:26:43;2.85;;;1.77;;
15192;SDS011;7697;51.630;7.484;2023-09-18T14:31:46;1.90;;;1.67;;
15192;SDS011;7697;51.630;7.484;2023-09-18T14:36:48;2.55;;;1.88;;
15192;SDS011;7697;51.630;7.484;2023-09-18T14:41:50;2.40;;;1.73;;
15192;SDS011;7697;51.630;7.484;2023-09-18T14:46:54;3.05;;;1.65;;
15192;SDS011;7697;51.630;7.484;2023-09-18T14:51:56;1.98;;;1.60;;
15192;SDS011;7697;51.630;7.484;2023-09-18T14:56:57;3.10;;;1.80;;
15192;SDS011;7697;51.630;7.484;2023-09-18T15:02:02;1.60;;;1.50;;
15192;SDS011;7697;51.630;7.484;2023-09-18T15:07:05;3.13;;;1.90;;
15192;SDS011;7697;51.630;7.484;2023-09-18T15:12:07;2.35;;;1.70;;
15192;SDS011;7697;51.630;7.484;2023-09-18T15:17:12;1.70;;;1.50;;
15192;SDS011;7697;51.630;7.484;2023-09-18T15:22:15;1.58;;;1.48;;
15192;SDS011;7697;51.630;7.484;2023-09-18T15:27:16;1.90;;;1.52;;
15192;SDS011;7697;51.630;7.484;2023-09-18T15:32:20;9.70;;;1.70;;
15192;SDS011;7697;51.630;7.484;2023-09-18T15:37:22;2.25;;;1.58;;
15192;SDS011;7697;51.630;7.484;2023-09-18T15:42:24;3.40;;;1.80;;
15192;SDS011;7697;51.630;7.484;2023-09-18T15:47:27;1.80;;;1.60;;
15192;SDS011;7697;51.630;7.484;2023-09-18T15:52:28;2.70;;;1.80;;
15192;SDS011;7697;51.630;7.484;2023-09-18T15:57:30;2.60;;;1.90;;
15192;SDS011;7697;51.630;7.484;2023-09-18T16:02:34;2.15;;;1.65;;
15192;SDS011;7697;51.630;7.484;2023-09-18T16:07:37;3.33;;;1.83;;
15192;SDS011;7697;51.630;7.484;2023-09-18T16:12:39;2.03;;;1.83;;
15192;SDS011;7697;51.630;7.484;2023-09-18T16:17:42;1.95;;;1.58;;
15192;SDS011;7697;51.630;7.484;2023-09-18T16:22:44;2.15;;;1.60;;
15192;SDS011;7697;51.630;7.484;2023-09-18T16:27:47;3.45;;;1.92;;
15192;SDS011;7697;51.630;7.484;2023-09-18T16:32:50;2.08;;;1.60;;
15192;SDS011;7697;51.630;7.484;2023-09-18T16:37:51;3.70;;;1.70;;
15192;SDS011;7697;51.630;7.484;2023-09-18T16:42:53;1.70;;;1.52;;
15192;SDS011;7697;51.630;7.484;2023-09-18T16:47:56;3.50;;;1.63;;
15192;SDS011;7697;51.630;7.484;2023-09-18T16:52:58;1.60;;;1.48;;
15192;SDS011;7697;51.630;7.484;2023-09-18T16:58:00;2.17;;;1.48;;
15192;SDS011;7697;51.630;7.484;2023-09-18T17:03:04;2.50;;;1.83;;
15192;SDS011;7697;51.630;7.484;2023-09-18T17:08:24;3.13;;;1.70;;
15192;SDS011;7697;51.630;7.484;2023-09-18T17:13:27;3.22;;;1.60;;
15192;SDS011;7697;51.630;7.484;2023-09-18T17:18:30;2.15;;;1.60;;
15192;SDS011;7697;51.630;7.484;2023-09-18T17:23:32;2.97;;;1.30;;
15192;SDS011;7697;51.630;7.484;2023-09-18T17:28:35;1.88;;;1.70;;
15192;SDS011;7697;51.630;7.484;2023-09-18T17:33:38;2.85;;;1.52;;
15192;SDS011;7697;51.630;7.484;2023-09-18T17:38:40;2.83;;;1.60;;
15192;SDS011;7697;51.630;7.484;2023-09-18T17:43:44;2.65;;;1.52;;
15192;SDS011;7697;51.630;7.484;2023-09-18T17:48:47;2.25;;;1.48;;
15192;SDS011;7697;51.630;7.484;2023-09-18T17:53:48;2.85;;;1.60;;
15192;SDS011;7697;51.630;7.484;2023-09-18T17:58:50;2.60;;;1.73;;
15192;SDS011;7697;51.630;7.484;2023-09-18T18:03:53;2.03;;;1.63;;
15192;SDS011;7697;51.630;7.484;2023-09-18T18:08:57;2.38;;;1.65;;
15192;SDS011;7697;51.630;7.484;2023-09-18T18:13:59;3.70;;;1.70;;
15192;SDS011;7697;51.630;7.484;2023-09-18T18:19:06;1.80;;;1.60;;
15192;SDS011;7697;51.630;7.484;2023-09-18T18:24:08;3.85;;;1.60;;
15192;SDS011;7697;51.630;7.484;2023-09-18T18:29:10;3.23;;;1.80;;
15192;SDS011;7697;51.630;7.484;2023-09-18T18:34:14;6.95;;;1.80;;
15192;SDS011;7697;51.630;7.484;2023-09-18T18:39:16;4.53;;;1.77;;
15192;SDS011;7697;51.630;7.484;2023-09-18T18:44:17;10.75;;;2.20;;
15192;SDS011;7697;51.630;7.484;2023-09-18T18:49:21;5.07;;;1.85;;
15192;SDS011;7697;51.630;7.484;2023-09-18T18:54:23;4.10;;;1.83;;
15192;SDS011;7697;51.630;7.484;2023-09-18T18:59:25;2.05;;;1.80;;
15192;SDS011;7697;51.630;7.484;2023-09-18T19:04:28;2.63;;;1.90;;
15192;SDS011;7697;51.630;7.484;2023-09-18T19:09:31;3.85;;;2.33;;
15192;SDS011;7697;51.630;7.484;2023-09-18T19:14:32;4.85;;;2.30;;
15192;SDS011;7697;51.630;7.484;2023-09-18T19:19:36;2.85;;;1.65;;
15192;SDS011;7697;51.630;7.484;2023-09-18T19:24:37;3.70;;;1.65;;
15192;SDS011;7697;51.630;7.484;2023-09-18T19:29:39;2.70;;;1.65;;
15192;SDS011;7697;51.630;7.484;2023-09-18T19:34:42;2.10;;;1.60;;
15192;SDS011;7697;51.630;7.484;2023-09-18T19:39:44;3.40;;;1.40;;
15192;SDS011;7697;51.630;7.484;2023-09-18T19:44:46;1.85;;;1.40;;
15192;SDS011;7697;51.630;7.484;2023-09-18T19:49:49;1.98;;;1.60;;
15192;SDS011;7697;51.630;7.484;2023-09-18T19:54:51;1.75;;;1.50;;
15192;SDS011;7697;51.630;7.484;2023-09-18T19:59:52;2.58;;;1.60;;
15192;SDS011;7697;51.630;7.484;2023-09-18T20:04:56;2.70;;;1.60;;
15192;SDS011;7697;51.630;7.484;2023-09-18T20:09:59;2.78;;;1.67;;
15192;SDS011;7697;51.630;7.484;2023-09-18T20:15:02;1.90;;;1.70;;
15192;SDS011;7697;51.630;7.484;2023-09-18T20:20:07;2.85;;;1.70;;
15192;SDS011;7697;51.630;7.484;2023-09-18T20:25:09;1.80;;;1.60;;
15192;SDS011;7697;51.630;7.484;2023-09-18T20:30:12;2.40;;;1.92;;
15192;SDS011;7697;51.630;7.484;2023-09-18T20:35:16;3.10;;;2.58;;
15192;SDS011;7697;51.630;7.484;2023-09-18T20:40:18;2.35;;;2.15;;
15192;SDS011;7697;51.630;7.484;2023-09-18T20:45:20;1.75;;;1.60;;
15192;SDS011;7697;51.630;7.484;2023-09-18T20:50:23;3.00;;;1.73;;
15192;SDS011;7697;51.630;7.484;2023-09-18T20:55:25;2.55;;;1.50;;
15192;SDS011;7697;51.630;7.484;2023-09-18T21:00:29;2.10;;;1.90;;
15192;SDS011;7697;51.630;7.484;2023-09-18T21:05:33;2.65;;;1.80;;
15192;SDS011;7697;51.630;7.484;2023-09-18T21:10:35;2.55;;;2.13;;
15192;SDS011;7697;51.630;7.484;2023-09-18T21:15:37;3.33;;;2.55;;
15192;SDS011;7697;51.630;7.484;2023-09-18T21:20:41;3.53;;;2.40;;
15192;SDS011;7697;51.630;7.484;2023-09-18T21:25:42;4.13;;;2.30;;
15192;SDS011;7697;51.630;7.484;2023-09-18T21:30:49;2.78;;;2.20;;
15192;SDS011;7697;51.630;7.484;2023-09-18T21:35:53;3.38;;;2.40;;
15192;SDS011;7697;51.630;7.484;2023-09-18T21:40:56;4.15;;;2.50;;
15192;SDS011;7697;51.630;7.484;2023-09-18T21:45:58;2.78;;;2.50;;
15192;SDS011;7697;51.630;7.484;2023-09-18T21:51:01;3.53;;;2.35;;
15192;SDS011;7697;51.630;7.484;2023-09-18T21:56:03;2.70;;;1.98;;
15192;SDS011;7697;51.630;7.484;2023-09-18T22:01:06;2.42;;;1.83;;
15192;SDS011;7697;51.630;7.484;2023-09-18T22:06:10;4.45;;;2.53;;
15192;SDS011;7697;51.630;7.484;2023-09-18T22:11:11;3.55;;;2.03;;
15192;SDS011;7697;51.630;7.484;2023-09-18T22:16:13;2.55;;;1.90;;
15192;SDS011;7697;51.630;7.484;2023-09-18T22:21:16;3.55;;;1.83;;
15192;SDS011;7697;51.630;7.484;2023-09-18T22:26:18;4.32;;;2.00;;
15192;SDS011;7697;51.630;7.484;2023-09-18T22:31:20;4.72;;;1.90;;
15192;SDS011;7697;51.630;7.484;2023-09-18T22:36:23;4.90;;;2.95;;
15192;SDS011;7697;51.630;7.484;2023-09-18T22:57:42;2.60;;;1.92;;
15192;SDS011;7697;51.630;7.484;2023-09-18T23:02:47;4.25;;;2.65;;
15192;SDS011;7697;51.630;7.484;2023-09-18T23:07:49;4.40;;;2.13;;
15192;SDS011;7697;51.630;7.484;2023-09-18T23:12:54;2.53;;;1.83;;
15192;SDS011;7697;51.630;7.484;2023-09-18T23:18:03;3.58;;;2.33;;
15192;SDS011;7697;51.630;7.484;2023-09-18T23:23:06;5.25;;;2.47;;
15192;SDS011;7697;51.630;7.484;2023-09-18T23:28:10;3.75;;;2.20;;
15192;SDS011;7697;51.630;7.484;2023-09-18T23:33:12;2.92;;;2.20;;
15192;SDS011;7697;51.630;7.484;2023-09-18T23:38:14;3.55;;;2.25;;
15192;SDS011;7697;51.630;7.484;2023-09-18T23:43:20;3.90;;;2.47;;
15192;SDS011;7697;51.630;7.484;2023-09-18T23:48:24;4.68;;;2.50;;
15192;SDS011;7697;51.630;7.484;2023-09-18T23:53:26;5.40;;;2.60;;
15192;SDS011;7697;51.630;7.484;2023-09-18T23:58:31;4.95;;;3.08;;
